Assateague Island Natl Seashore, Maryland
Current Conditions -  °F | °C
As of 10:53 PM on Thursday 20 Nov 2014 (Local Time) from KOXB Reporting Station
Clear Clear  
Wind Chill:   Ceiling: Unl
Heat Index:   Visibility: 10mi
Dew Point: -6°   Wind: 7mph
Humidity: 52%   Direction: 340°NNW
Pressure: 30.07"   Gusts: NA
Location:  38.12°N, 75.19°W
Report Text: KOXB 210353Z AUTO 34006KT 10SM CLR 03/M06 A3007 RMK AO2 SLP181 T00281061 TSNO
Loading
Personal Weather Stations






























Interactive Weather Map New forecast layout! Learn more

10-Day Weather Forecast

Advertisements
Track Severe Weather on mobile